Time;durP1;ratioP1;P1;durP2;ratioP2;P2;SDS_P1;SDS_P2;PMS_P1;PMS_P2;Temp;Humidity;BMP_temperature;BMP_pressure;BME280_temperature;BME280_humidity;BME280_pressure;Samples;Min_cycle;Max_cycle;Signal;HPM_P1;HPM_P2
2022/12/11 00:01:36;;;;;;;30.80;18.10;;;;;;;;;;5033686;28;20053;-93
2022/12/11 00:04:04;;;;;;;32.50;18.33;;;;;;;;;;5033449;28;20049;-94
2022/12/11 00:06:32;;;;;;;26.75;17.02;;;;;;;;;;5033711;28;20088;-93
2022/12/11 00:09:00;;;;;;;29.45;16.65;;;;;;;;;;5033382;28;20486;-93
2022/12/11 00:11:27;;;;;;;32.55;17.73;;;;;;;;;;5032620;28;20060;-93
2022/12/11 00:13:54;;;;;;;32.25;17.98;;;;;;;;;;5033577;28;20055;-93
2022/12/11 00:16:22;;;;;;;30.08;17.23;;;;;;;;;;5034590;28;20053;-93
2022/12/11 00:18:53;;;;;;;29.83;17.20;;;;;;;;;;5033617;28;20049;-94
2022/12/11 00:21:20;;;;;;;28.10;16.70;;;;;;;;;;5033514;28;20041;-93
2022/12/11 00:23:48;;;;;;;29.23;17.48;;;;;;;;;;5032888;28;20068;-93
2022/12/11 00:26:15;;;;;;;32.83;17.92;;;;;;;;;;5033340;28;20045;-93
2022/12/11 00:28:43;;;;;;;28.92;17.52;;;;;;;;;;5032982;28;20053;-93
2022/12/11 00:31:18;;;;;;;33.03;17.98;;;;;;;;;;5033016;28;20055;-94
2022/12/11 00:33:47;;;;;;;33.28;18.02;;;;;;;;;;5032764;28;20543;-93
2022/12/11 00:36:22;;;;;;;32.67;17.90;;;;;;;;;;5032889;28;20060;-94
2022/12/11 00:38:50;;;;;;;29.98;17.48;;;;;;;;;;5032781;28;20067;-93
2022/12/11 00:41:18;;;;;;;29.00;16.73;;;;;;;;;;5032877;28;20053;-93
2022/12/11 00:43:46;;;;;;;30.98;16.83;;;;;;;;;;5032819;28;20050;-93
2022/12/11 00:46:13;;;;;;;31.58;17.58;;;;;;;;;;5033180;28;20128;-93
2022/12/11 00:48:41;;;;;;;30.27;17.02;;;;;;;;;;5033042;28;20505;-93
2022/12/11 00:51:09;;;;;;;29.08;16.45;;;;;;;;;;5032526;28;20046;-93
2022/12/11 00:53:37;;;;;;;28.52;16.95;;;;;;;;;;5033601;28;20577;-93
2022/12/11 00:56:12;;;;;;;32.55;18.30;;;;;;;;;;5032990;28;20050;-93
2022/12/11 00:58:40;;;;;;;34.33;19.15;;;;;;;;;;5032855;28;20462;-93
2022/12/11 01:01:09;;;;;;;31.88;18.02;;;;;;;;;;5032787;28;20417;-93
2022/12/11 01:03:36;;;;;;;29.25;17.02;;;;;;;;;;5032594;28;20049;-93
2022/12/11 01:06:04;;;;;;;35.33;18.20;;;;;;;;;;5032923;28;20057;-93
2022/12/11 01:08:31;;;;;;;35.95;19.00;;;;;;;;;;5032738;28;20059;-93
2022/12/11 01:11:05;;;;;;;35.60;18.70;;;;;;;;;;5032850;28;20103;-93
2022/12/11 01:13:33;;;;;;;34.63;18.65;;;;;;;;;;5032597;28;20045;-93
2022/12/11 01:16:05;;;;;;;30.25;17.48;;;;;;;;;;5032399;28;20049;-94
2022/12/11 01:18:32;;;;;;;35.83;19.42;;;;;;;;;;5032515;28;20060;-93
2022/12/11 01:21:00;;;;;;;32.25;18.48;;;;;;;;;;5032714;28;20053;-93
2022/12/11 01:23:27;;;;;;;37.05;19.70;;;;;;;;;;5034035;28;20053;-93
2022/12/11 01:25:55;;;;;;;35.85;18.58;;;;;;;;;;5036500;28;20064;-93
2022/12/11 01:28:22;;;;;;;35.80;19.48;;;;;;;;;;5036662;28;20071;-93
2022/12/11 01:30:49;;;;;;;34.10;18.92;;;;;;;;;;5036513;28;20053;-93
2022/12/11 01:33:17;;;;;;;37.45;19.17;;;;;;;;;;5036471;28;20119;-93
2022/12/11 01:35:44;;;;;;;32.78;19.23;;;;;;;;;;5036246;28;20057;-93
2022/12/11 01:38:11;;;;;;;34.13;18.83;;;;;;;;;;5036571;28;20340;-93
2022/12/11 01:40:45;;;;;;;34.63;18.58;;;;;;;;;;5036210;28;20427;-93
2022/12/11 01:43:18;;;;;;;38.65;20.15;;;;;;;;;;5036042;28;20060;-93
2022/12/11 01:45:47;;;;;;;34.45;18.45;;;;;;;;;;5036456;28;20049;-93
2022/12/11 01:48:23;;;;;;;34.70;19.50;;;;;;;;;;5036357;28;20053;-92
2022/12/11 01:50:53;;;;;;;36.70;19.75;;;;;;;;;;5036359;28;20486;-92
2022/12/11 01:53:26;;;;;;;37.42;18.80;;;;;;;;;;5035822;28;20486;-93
2022/12/11 01:55:55;;;;;;;36.38;18.73;;;;;;;;;;5035939;28;20065;-93
2022/12/11 01:58:24;;;;;;;34.45;17.98;;;;;;;;;;5035973;28;20057;-93
2022/12/11 02:00:52;;;;;;;33.55;18.50;;;;;;;;;;5036058;28;20060;-93
2022/12/11 02:03:20;;;;;;;41.20;20.00;;;;;;;;;;5035492;28;20168;-93
2022/12/11 02:05:48;;;;;;;34.28;19.70;;;;;;;;;;5035802;28;20557;-93
2022/12/11 02:08:16;;;;;;;33.75;18.85;;;;;;;;;;5036198;28;20379;-93
2022/12/11 02:10:48;;;;;;;32.08;18.33;;;;;;;;;;5035833;28;20045;-93
2022/12/11 02:13:22;;;;;;;32.42;18.25;;;;;;;;;;5035826;28;20049;-93
2022/12/11 02:15:55;;;;;;;36.10;19.02;;;;;;;;;;5035601;28;20409;-92
2022/12/11 02:18:55;;;;;;;39.03;20.13;;;;;;;;;;5035752;28;20053;-92
2022/12/11 02:21:34;;;;;;;35.72;19.70;;;;;;;;;;5024130;28;20052;-93
2022/12/11 02:24:01;;;;;;;37.58;20.17;;;;;;;;;;5035339;28;20505;-92
2022/12/11 02:26:41;;;;;;;32.92;19.52;;;;;;;;;;5035275;28;20123;-93
2022/12/11 02:29:11;;;;;;;32.67;19.90;;;;;;;;;;5034933;28;20050;-92
2022/12/11 02:31:41;;;;;;;34.22;20.52;;;;;;;;;;5035335;28;20084;-92
2022/12/11 02:34:11;;;;;;;33.53;19.45;;;;;;;;;;5036486;28;20528;-92
2022/12/11 02:36:44;;;;;;;33.00;19.70;;;;;;;;;;5035856;28;20060;-93
2022/12/11 02:39:13;;;;;;;31.95;19.23;;;;;;;;;;5035292;28;20049;-93
2022/12/11 02:41:43;;;;;;;35.05;20.75;;;;;;;;;;5035318;28;20060;-92
2022/12/11 02:44:13;;;;;;;36.47;21.70;;;;;;;;;;5034993;28;20053;-93
2022/12/11 02:46:40;;;;;;;37.50;22.15;;;;;;;;;;5035226;28;20504;-93
2022/12/11 02:49:09;;;;;;;34.47;21.77;;;;;;;;;;5035509;28;20049;-93
2022/12/11 02:51:38;;;;;;;37.55;22.70;;;;;;;;;;5041271;28;20051;-92
2022/12/11 02:54:07;;;;;;;37.83;21.42;;;;;;;;;;5035540;28;20061;-93
2022/12/11 02:56:49;;;;;;;38.17;22.73;;;;;;;;;;5035537;28;20049;-92
2022/12/11 02:59:20;;;;;;;36.65;22.15;;;;;;;;;;5035341;28;20049;-92
2022/12/11 03:01:47;;;;;;;36.58;22.60;;;;;;;;;;5034857;28;20042;-92
2022/12/11 03:04:14;;;;;;;34.33;20.25;;;;;;;;;;5034711;28;20060;-92
2022/12/11 03:06:45;;;;;;;34.22;20.88;;;;;;;;;;5034261;28;20512;-92
2022/12/11 03:09:13;;;;;;;34.97;21.05;;;;;;;;;;5034889;28;20548;-93
2022/12/11 03:11:40;;;;;;;36.03;22.02;;;;;;;;;;5035338;28;20046;-92
2022/12/11 03:14:07;;;;;;;32.75;20.98;;;;;;;;;;5034805;28;20064;-92
2022/12/11 03:16:35;;;;;;;34.40;20.58;;;;;;;;;;5035055;28;20114;-92
2022/12/11 03:19:11;;;;;;;33.28;21.23;;;;;;;;;;5034331;28;20053;-92
2022/12/11 03:21:48;;;;;;;30.92;18.88;;;;;;;;;;5034215;28;20498;-92
2022/12/11 03:24:38;;;;;;;33.13;19.95;;;;;;;;;;5034154;28;20054;-92
2022/12/11 03:27:27;;;;;;;32.08;19.77;;;;;;;;;;5034282;28;20045;-92
2022/12/11 03:29:57;;;;;;;33.00;19.80;;;;;;;;;;5034623;28;20060;-92
2022/12/11 03:32:28;;;;;;;35.83;20.85;;;;;;;;;;5034581;28;20053;-93
2022/12/11 03:35:05;;;;;;;34.70;21.67;;;;;;;;;;5034592;28;20053;-92
2022/12/11 03:37:34;;;;;;;34.83;21.17;;;;;;;;;;5033173;28;20064;-92
2022/12/11 03:40:05;;;;;;;36.42;22.42;;;;;;;;;;5034279;28;20057;-92
2022/12/11 03:42:33;;;;;;;32.10;20.05;;;;;;;;;;5034241;28;20054;-92
2022/12/11 03:45:02;;;;;;;32.35;20.23;;;;;;;;;;5033802;28;20140;-92
2022/12/11 03:47:29;;;;;;;35.50;22.02;;;;;;;;;;5034045;28;20101;-91
2022/12/11 03:49:58;;;;;;;36.67;22.02;;;;;;;;;;5034407;28;20231;-91
2022/12/11 03:52:27;;;;;;;37.42;23.15;;;;;;;;;;5034507;28;20513;-91
2022/12/11 03:54:56;;;;;;;41.05;23.52;;;;;;;;;;5034070;28;20049;-92
2022/12/11 03:57:28;;;;;;;37.80;22.83;;;;;;;;;;5034364;28;20067;-92
2022/12/11 03:59:56;;;;;;;39.60;23.50;;;;;;;;;;5033993;28;20053;-93
2022/12/11 04:02:23;;;;;;;40.97;23.45;;;;;;;;;;5033824;28;20053;-92
2022/12/11 04:04:50;;;;;;;41.90;23.35;;;;;;;;;;5033537;28;20508;-92
2022/12/11 04:07:17;;;;;;;36.85;21.73;;;;;;;;;;5033423;28;20053;-92
2022/12/11 04:09:45;;;;;;;40.33;23.45;;;;;;;;;;5033554;28;20582;-92
2022/12/11 04:12:12;;;;;;;37.30;22.10;;;;;;;;;;5033707;28;20048;-92
2022/12/11 04:25:43;;;;;;;33.90;20.67;;;;;;;;;;5034229;28;20055;-92
2022/12/11 04:28:11;;;;;;;34.45;21.40;;;;;;;;;;5033226;28;20049;-92
2022/12/11 04:30:38;;;;;;;32.80;20.58;;;;;;;;;;5033176;28;20063;-92
2022/12/11 04:33:05;;;;;;;32.45;19.85;;;;;;;;;;5033151;28;20050;-92
2022/12/11 04:35:33;;;;;;;35.13;20.45;;;;;;;;;;5033759;28;20056;-92
2022/12/11 04:38:00;;;;;;;34.22;20.63;;;;;;;;;;5033958;28;20054;-92
2022/12/11 04:40:27;;;;;;;33.42;20.27;;;;;;;;;;5032950;28;20056;-92
2022/12/11 04:42:55;;;;;;;35.30;20.85;;;;;;;;;;5033413;28;20060;-92
2022/12/11 04:45:22;;;;;;;36.65;22.25;;;;;;;;;;5032822;28;20541;-92
2022/12/11 04:47:49;;;;;;;35.80;21.80;;;;;;;;;;5033437;28;20053;-91
2022/12/11 04:50:17;;;;;;;34.28;20.92;;;;;;;;;;5035989;28;20059;-93
2022/12/11 04:52:44;;;;;;;32.65;20.20;;;;;;;;;;5032893;28;20049;-92
2022/12/11 04:55:12;;;;;;;34.72;22.20;;;;;;;;;;5032982;28;20486;-92
2022/12/11 04:57:40;;;;;;;31.45;20.02;;;;;;;;;;5032404;28;20091;-93
2022/12/11 05:00:08;;;;;;;30.27;18.45;;;;;;;;;;5032992;28;20051;-92
2022/12/11 05:02:36;;;;;;;31.00;18.65;;;;;;;;;;5032726;28;20405;-92
2022/12/11 05:05:05;;;;;;;32.33;19.70;;;;;;;;;;5032488;28;20052;-93
2022/12/11 05:07:32;;;;;;;32.28;19.60;;;;;;;;;;5032632;28;20049;-92
2022/12/11 05:10:00;;;;;;;30.42;19.60;;;;;;;;;;5032444;28;20053;-92
2022/12/11 05:12:27;;;;;;;32.88;19.88;;;;;;;;;;5032825;28;20060;-92
2022/12/11 05:14:55;;;;;;;30.80;19.40;;;;;;;;;;5032777;28;20056;-92
2022/12/11 05:17:22;;;;;;;34.03;19.88;;;;;;;;;;5032637;28;20045;-92
2022/12/11 05:19:50;;;;;;;31.35;19.13;;;;;;;;;;5032819;28;20072;-92
2022/12/11 05:22:18;;;;;;;34.58;21.02;;;;;;;;;;5032354;28;20521;-92
2022/12/11 05:24:45;;;;;;;34.88;21.08;;;;;;;;;;5032468;28;20061;-92
2022/12/11 05:27:13;;;;;;;35.03;20.30;;;;;;;;;;5032585;28;20046;-92
2022/12/11 05:29:40;;;;;;;36.00;21.58;;;;;;;;;;5032549;28;20057;-92
2022/12/11 05:32:08;;;;;;;37.30;21.23;;;;;;;;;;5032667;28;20152;-92
2022/12/11 05:34:35;;;;;;;36.75;21.27;;;;;;;;;;5032719;28;20046;-91
2022/12/11 05:37:03;;;;;;;33.30;20.75;;;;;;;;;;5032755;28;20128;-92
2022/12/11 05:39:30;;;;;;;33.38;20.65;;;;;;;;;;5032538;28;20427;-93
2022/12/11 05:41:57;;;;;;;37.15;22.30;;;;;;;;;;5032466;28;20076;-92
2022/12/11 05:44:25;;;;;;;37.70;21.73;;;;;;;;;;5032617;28;20077;-91
2022/12/11 05:46:53;;;;;;;36.38;22.90;;;;;;;;;;5032233;28;20064;-92
2022/12/11 05:49:21;;;;;;;40.60;24.42;;;;;;;;;;5032378;28;20103;-92
2022/12/11 05:51:56;;;;;;;36.40;21.17;;;;;;;;;;5032530;28;20103;-92
2022/12/11 05:54:24;;;;;;;36.58;22.17;;;;;;;;;;5032332;28;20486;-92
2022/12/11 05:56:51;;;;;;;39.20;22.92;;;;;;;;;;5033013;28;20052;-92
2022/12/11 05:59:19;;;;;;;38.10;22.38;;;;;;;;;;5032486;28;20521;-92
2022/12/11 06:01:46;;;;;;;38.92;22.15;;;;;;;;;;5032296;28;20056;-92
2022/12/11 06:04:14;;;;;;;38.40;21.45;;;;;;;;;;5032024;28;20049;-92
2022/12/11 06:06:42;;;;;;;36.42;21.60;;;;;;;;;;5032241;28;20054;-92
2022/12/11 06:09:13;;;;;;;34.80;21.60;;;;;;;;;;5032325;28;20041;-92
2022/12/11 06:11:41;;;;;;;33.70;20.17;;;;;;;;;;5035448;28;20065;-93
2022/12/11 06:14:09;;;;;;;36.08;22.15;;;;;;;;;;5035567;28;20045;-92
2022/12/11 06:16:37;;;;;;;35.20;21.48;;;;;;;;;;5035798;28;20119;-93
2022/12/11 06:19:04;;;;;;;40.97;22.88;;;;;;;;;;5035785;28;20410;-93
2022/12/11 06:21:33;;;;;;;38.65;21.60;;;;;;;;;;5035819;28;20049;-93
2022/12/11 06:24:02;;;;;;;34.38;19.83;;;;;;;;;;5035475;28;20418;-93
2022/12/11 06:26:30;;;;;;;35.28;20.13;;;;;;;;;;5035918;28;20060;-93
2022/12/11 06:28:58;;;;;;;37.38;21.42;;;;;;;;;;5035790;28;20049;-93
2022/12/11 06:31:25;;;;;;;34.50;20.60;;;;;;;;;;5035687;28;20558;-93
2022/12/11 06:33:53;;;;;;;34.33;19.40;;;;;;;;;;5035749;28;20045;-93
2022/12/11 06:36:21;;;;;;;32.15;18.25;;;;;;;;;;5035837;28;20046;-93
2022/12/11 06:38:48;;;;;;;28.60;17.33;;;;;;;;;;5035592;28;20062;-93
2022/12/11 06:41:16;;;;;;;28.75;16.90;;;;;;;;;;5035281;28;20128;-93
2022/12/11 06:43:43;;;;;;;28.85;17.00;;;;;;;;;;5035553;28;20136;-93
2022/12/11 06:46:15;;;;;;;27.17;17.17;;;;;;;;;;5035143;28;20068;-93
2022/12/11 06:48:42;;;;;;;26.33;16.25;;;;;;;;;;5035468;28;20045;-93
2022/12/11 06:51:11;;;;;;;30.85;18.40;;;;;;;;;;5034966;28;20050;-93
2022/12/11 06:53:39;;;;;;;30.55;19.02;;;;;;;;;;5035341;28;20056;-93
2022/12/11 06:56:13;;;;;;;30.33;17.98;;;;;;;;;;5035167;28;20051;-93
2022/12/11 06:58:41;;;;;;;31.08;18.40;;;;;;;;;;5034878;28;20054;-93
2022/12/11 07:01:17;;;;;;;27.90;18.13;;;;;;;;;;5035411;28;20061;-93
2022/12/11 07:03:44;;;;;;;28.83;18.70;;;;;;;;;;5034932;28;20050;-92
2022/12/11 07:06:12;;;;;;;31.88;20.25;;;;;;;;;;5035605;28;20585;-92
2022/12/11 07:08:40;;;;;;;34.25;19.35;;;;;;;;;;5035122;28;20132;-93
2022/12/11 07:11:10;;;;;;;36.45;20.83;;;;;;;;;;5034880;28;20049;-94
2022/12/11 07:13:37;;;;;;;39.00;22.65;;;;;;;;;;5034640;28;20120;-93
2022/12/11 07:16:09;;;;;;;36.60;21.05;;;;;;;;;;5034243;28;20056;-94
2022/12/11 07:18:38;;;;;;;39.30;21.45;;;;;;;;;;5034488;28;20059;-93
2022/12/11 07:21:07;;;;;;;41.70;22.90;;;;;;;;;;5033778;28;20060;-93
2022/12/11 07:23:35;;;;;;;33.70;19.85;;;;;;;;;;5034036;28;20076;-93
2022/12/11 07:26:06;;;;;;;40.10;21.63;;;;;;;;;;5033414;28;20069;-93
2022/12/11 07:28:33;;;;;;;45.72;24.45;;;;;;;;;;5033684;28;20053;-93
2022/12/11 07:31:21;;;;;;;39.97;22.85;;;;;;;;;;5033730;28;20508;-93
2022/12/11 07:33:56;;;;;;;40.80;21.55;;;;;;;;;;5033748;28;20049;-94
2022/12/11 07:36:24;;;;;;;33.75;19.40;;;;;;;;;;5033801;28;20045;-93
2022/12/11 07:38:51;;;;;;;32.88;20.02;;;;;;;;;;5033602;28;20057;-93
2022/12/11 07:41:19;;;;;;;34.55;19.63;;;;;;;;;;5033413;28;20053;-93
2022/12/11 07:43:46;;;;;;;39.05;19.90;;;;;;;;;;5033632;28;20053;-93
2022/12/11 07:46:15;;;;;;;36.75;19.98;;;;;;;;;;5033166;28;20316;-93
2022/12/11 07:48:43;;;;;;;33.08;19.30;;;;;;;;;;5033193;28;20049;-93
2022/12/11 07:51:23;;;;;;;36.38;19.02;;;;;;;;;;5033428;28;20054;-94
2022/12/11 07:53:52;;;;;;;35.25;19.92;;;;;;;;;;5033459;28;20071;-93
2022/12/11 07:56:20;;;;;;;38.97;21.65;;;;;;;;;;5033242;28;20433;-93
2022/12/11 07:58:47;;;;;;;40.65;23.45;;;;;;;;;;5033305;28;20052;-93
2022/12/11 08:01:17;;;;;;;32.13;17.95;;;;;;;;;;5033175;28;20413;-93
2022/12/11 08:03:44;;;;;;;35.72;18.73;;;;;;;;;;5032911;28;20053;-93
2022/12/11 08:06:12;;;;;;;37.05;20.52;;;;;;;;;;5022888;28;20049;-93
2022/12/11 08:08:40;;;;;;;36.00;20.63;;;;;;;;;;5023077;28;20041;-93
2022/12/11 08:11:09;;;;;;;39.47;19.75;;;;;;;;;;5024027;28;20049;-93
2022/12/11 08:13:36;;;;;;;33.60;17.98;;;;;;;;;;5023663;28;20553;-93
2022/12/11 08:16:08;;;;;;;32.22;18.45;;;;;;;;;;5023426;28;20050;-94
2022/12/11 08:18:36;;;;;;;33.88;18.40;;;;;;;;;;5020852;28;20037;-93
2022/12/11 08:21:11;;;;;;;31.90;19.08;;;;;;;;;;5012716;28;20578;-93
2022/12/11 08:23:38;;;;;;;33.47;18.77;;;;;;;;;;5013250;28;20060;-93
2022/12/11 08:26:07;;;;;;;31.75;18.13;;;;;;;;;;5013150;28;20244;-93
2022/12/11 08:28:35;;;;;;;30.45;18.20;;;;;;;;;;5013200;28;20056;-93
2022/12/11 08:31:06;;;;;;;30.27;17.63;;;;;;;;;;5013446;28;20057;-93
2022/12/11 08:33:35;;;;;;;30.23;17.77;;;;;;;;;;5012502;28;20088;-93
2022/12/11 08:36:03;;;;;;;28.77;16.83;;;;;;;;;;5013014;28;20480;-93
2022/12/11 08:38:31;;;;;;;29.75;17.17;;;;;;;;;;5013645;28;20049;-92
2022/12/11 08:40:58;;;;;;;31.20;18.38;;;;;;;;;;5013359;28;20108;-93
2022/12/11 08:43:25;;;;;;;34.13;19.40;;;;;;;;;;5013687;28;20132;-94
2022/12/11 08:45:53;;;;;;;32.35;18.52;;;;;;;;;;5013209;28;20079;-93
2022/12/11 08:48:20;;;;;;;38.67;21.60;;;;;;;;;;5013464;28;20487;-92
2022/12/11 08:50:47;;;;;;;32.72;18.60;;;;;;;;;;5013471;28;20145;-94
2022/12/11 08:53:15;;;;;;;36.53;20.75;;;;;;;;;;5014279;28;20054;-93
2022/12/11 08:55:42;;;;;;;31.45;18.20;;;;;;;;;;5013491;28;20140;-93
2022/12/11 08:58:10;;;;;;;31.75;18.73;;;;;;;;;;5014258;28;20049;-93
2022/12/11 09:00:37;;;;;;;32.10;19.48;;;;;;;;;;5016799;28;20077;-93
2022/12/11 09:03:04;;;;;;;37.88;20.92;;;;;;;;;;5013532;28;20050;-94
2022/12/11 09:05:38;;;;;;;35.63;19.63;;;;;;;;;;5013521;28;20050;-93
2022/12/11 09:08:06;;;;;;;34.38;19.25;;;;;;;;;;5015274;28;20042;-93
2022/12/11 09:10:33;;;;;;;33.05;18.98;;;;;;;;;;5014738;28;20057;-94
2022/12/11 09:13:00;;;;;;;36.33;20.33;;;;;;;;;;5014684;28;20433;-94
2022/12/11 09:15:28;;;;;;;35.60;20.67;;;;;;;;;;5015887;28;20145;-93
2022/12/11 09:17:55;;;;;;;34.67;19.73;;;;;;;;;;5014589;28;20123;-93
2022/12/11 09:20:23;;;;;;;33.95;20.85;;;;;;;;;;5015972;28;20470;-93
2022/12/11 09:22:50;;;;;;;33.40;19.23;;;;;;;;;;5015627;28;20061;-95
2022/12/11 09:25:17;;;;;;;32.00;18.55;;;;;;;;;;5015439;28;20483;-95
2022/12/11 09:27:44;;;;;;;27.90;17.83;;;;;;;;;;5015289;28;20100;-93
2022/12/11 09:30:12;;;;;;;29.05;17.20;;;;;;;;;;5014430;28;20054;-93
2022/12/11 09:32:39;;;;;;;33.60;20.10;;;;;;;;;;5015802;28;20119;-93
2022/12/11 09:35:07;;;;;;;30.52;17.98;;;;;;;;;;5015934;28;20073;-93
2022/12/11 09:37:35;;;;;;;29.17;18.10;;;;;;;;;;5012157;28;20108;-94
2022/12/11 09:40:02;;;;;;;26.02;15.73;;;;;;;;;;5013052;28;20050;-94
2022/12/11 09:42:54;;;;;;;26.85;16.65;;;;;;;;;;5014514;28;20117;-93
2022/12/11 09:45:21;;;;;;;29.05;17.48;;;;;;;;;;5017139;28;20049;-93
2022/12/11 09:47:50;;;;;;;27.17;16.35;;;;;;;;;;5018441;28;20069;-94
2022/12/11 09:50:18;;;;;;;27.30;16.58;;;;;;;;;;5018327;28;20053;-93
2022/12/11 09:52:54;;;;;;;30.17;19.38;;;;;;;;;;5017898;28;20141;-93
2022/12/11 09:55:23;;;;;;;33.17;20.95;;;;;;;;;;5017242;28;20461;-93
2022/12/11 09:58:13;;;;;;;27.58;17.48;;;;;;;;;;5017996;28;20065;-93
2022/12/11 10:00:48;;;;;;;24.95;17.10;;;;;;;;;;5017830;28;20068;-93
2022/12/11 10:03:18;;;;;;;29.58;16.48;;;;;;;;;;5017778;28;20064;-93
2022/12/11 10:06:07;;;;;;;28.63;16.70;;;;;;;;;;5017418;28;20119;-93
2022/12/11 10:08:43;;;;;;;30.20;18.73;;;;;;;;;;5017470;28;20057;-94
2022/12/11 10:11:31;;;;;;;30.05;18.42;;;;;;;;;;5017627;28;20050;-93
2022/12/11 10:14:20;;;;;;;21.83;15.05;;;;;;;;;;5018285;28;20137;-93
2022/12/11 10:16:58;;;;;;;26.00;15.68;;;;;;;;;;5017857;28;20080;-93
2022/12/11 10:19:28;;;;;;;31.00;18.75;;;;;;;;;;5017623;28;20046;-94
2022/12/11 10:21:57;;;;;;;28.35;18.13;;;;;;;;;;5001989;28;20414;-94
2022/12/11 10:24:32;;;;;;;29.40;17.02;;;;;;;;;;5018174;28;20057;-94
2022/12/11 10:27:21;;;;;;;24.55;15.30;;;;;;;;;;5018640;28;20054;-94
2022/12/11 10:29:55;;;;;;;24.30;15.73;;;;;;;;;;5017999;28;20069;-94
2022/12/11 10:32:22;;;;;;;;;;;;;;;;;;5017911;28;20475;-94
2022/12/11 10:34:56;;;;;;;27.40;17.92;;;;;;;;;;5018094;28;20350;-93
2022/12/11 10:37:24;;;;;;;28.27;17.35;;;;;;;;;;5017855;28;20486;-93
2022/12/11 10:39:51;;;;;;;28.05;15.45;;;;;;;;;;5017713;28;20060;-93
2022/12/11 10:42:22;;;;;;;30.38;17.73;;;;;;;;;;5017708;28;20050;-92
2022/12/11 10:44:57;;;;;;;30.85;18.08;;;;;;;;;;5017215;28;20136;-93
2022/12/11 10:47:24;;;;;;;33.03;19.17;;;;;;;;;;5016391;28;20046;-93
2022/12/11 10:50:01;;;;;;;30.33;17.23;;;;;;;;;;5016584;28;20129;-93
2022/12/11 10:52:36;;;;;;;28.92;18.67;;;;;;;;;;5016753;28;20057;-93
2022/12/11 10:55:03;;;;;;;26.73;15.45;;;;;;;;;;5016376;28;20053;-93
2022/12/11 10:57:31;;;;;;;31.38;17.33;;;;;;;;;;5022266;28;20056;-93
2022/12/11 10:59:59;;;;;;;29.27;15.82;;;;;;;;;;5042244;28;20068;-93
2022/12/11 11:02:39;;;;;;;17.25;11.40;;;;;;;;;;5024385;28;20044;-93
2022/12/11 11:05:14;;;;;;;17.23;9.40;;;;;;;;;;5040583;28;20053;-93
2022/12/11 11:07:42;;;;;;;15.18;9.38;;;;;;;;;;5015341;28;20058;-94
2022/12/11 11:10:09;;;;;;;15.55;9.32;;;;;;;;;;5014881;28;20078;-93
2022/12/11 11:12:38;;;;;;;14.90;8.93;;;;;;;;;;5015460;28;20058;-93
2022/12/11 11:15:14;;;;;;;16.30;9.00;;;;;;;;;;5015923;28;20053;-93
2022/12/11 11:17:47;;;;;;;15.32;8.52;;;;;;;;;;5015706;28;20081;-94
2022/12/11 11:20:23;;;;;;;16.65;9.70;;;;;;;;;;5015801;28;20505;-94
2022/12/11 11:22:53;;;;;;;13.73;8.52;;;;;;;;;;5018905;28;20446;-94
2022/12/11 11:25:23;;;;;;;11.93;7.45;;;;;;;;;;5025373;28;20049;-93
2022/12/11 11:27:56;;;;;;;12.38;8.75;;;;;;;;;;5036179;28;20064;-94
2022/12/11 11:30:28;;;;;;;14.40;9.25;;;;;;;;;;5036273;28;20144;-94
2022/12/11 11:32:59;;;;;;;10.90;7.93;;;;;;;;;;5035800;28;20061;-94
2022/12/11 11:35:27;;;;;;;13.30;7.95;;;;;;;;;;5035932;28;20054;-93
2022/12/11 11:38:01;;;;;;;12.23;7.93;;;;;;;;;;5036048;28;20434;-94
2022/12/11 11:40:31;;;;;;;10.32;7.53;;;;;;;;;;5035385;28;20064;-93
2022/12/11 11:43:03;;;;;;;11.82;7.82;;;;;;;;;;5034511;28;20063;-93
2022/12/11 11:45:43;;;;;;;13.07;7.70;;;;;;;;;;5033820;28;20060;-94
2022/12/11 11:48:10;;;;;;;12.07;8.25;;;;;;;;;;5033650;28;20512;-93
2022/12/11 11:50:40;;;;;;;12.82;8.10;;;;;;;;;;5033603;28;20053;-93
2022/12/11 11:53:21;;;;;;;10.88;8.20;;;;;;;;;;5033809;28;20414;-94
2022/12/11 11:56:07;;;;;;;11.50;7.32;;;;;;;;;;5033494;28;20410;-93
2022/12/11 11:58:40;;;;;;;11.40;7.35;;;;;;;;;;5033659;28;20437;-94
2022/12/11 12:01:07;;;;;;;;;;;;;;;;;;5033162;28;20460;-94
2022/12/11 12:03:35;;;;;;;12.35;7.50;;;;;;;;;;5026085;28;19922;-93
2022/12/11 12:06:05;;;;;;;11.10;8.05;;;;;;;;;;5035376;28;20045;-93
2022/12/11 12:08:43;;;;;;;8.90;6.53;;;;;;;;;;5012585;28;20445;-94
2022/12/11 12:11:17;;;;;;;11.63;7.63;;;;;;;;;;5023843;28;20045;-93
2022/12/11 12:13:44;;;;;;;;;;;;;;;;;;5015343;28;20060;-93
2022/12/11 12:16:28;;;;;;;11.95;7.63;;;;;;;;;;5039782;28;19921;-94
2022/12/11 12:19:42;;;;;;;10.88;7.32;;;;;;;;;;5021286;28;20042;-93
2022/12/11 12:22:32;;;;;;;9.45;5.95;;;;;;;;;;5022267;28;20048;-93
2022/12/11 12:25:15;;;;;;;10.63;6.80;;;;;;;;;;5024498;28;20528;-93
2022/12/11 12:27:46;;;;;;;9.25;6.53;;;;;;;;;;5029555;28;20420;-93
2022/12/11 12:30:19;;;;;;;11.52;7.03;;;;;;;;;;5029905;28;20068;-93
2022/12/11 12:32:58;;;;;;;10.48;6.82;;;;;;;;;;5051194;28;20144;-93
2022/12/11 12:35:37;;;;;;;7.40;5.75;;;;;;;;;;5051138;28;20417;-93
2022/12/11 12:38:16;;;;;;;10.25;6.40;;;;;;;;;;5050021;28;20072;-93
2022/12/11 12:40:50;;;;;;;9.10;6.38;;;;;;;;;;5051833;28;20126;-93
2022/12/11 12:43:21;;;;;;;10.52;6.40;;;;;;;;;;5052156;28;20059;-93
2022/12/11 12:46:07;;;;;;;9.25;6.43;;;;;;;;;;5052054;28;20082;-93
2022/12/11 12:48:34;;;;;;;8.30;6.15;;;;;;;;;;5048530;28;20054;-93
2022/12/11 12:51:03;;;;;;;13.15;8.10;;;;;;;;;;5048916;28;20061;-94
2022/12/11 12:53:34;;;;;;;9.02;6.78;;;;;;;;;;5048566;28;20129;-93
2022/12/11 12:56:02;;;;;;;9.65;6.80;;;;;;;;;;5048744;28;20053;-93
2022/12/11 12:58:35;;;;;;;9.80;6.05;;;;;;;;;;5048992;28;20060;-93
2022/12/11 13:01:14;;;;;;;11.98;6.63;;;;;;;;;;5049952;28;20049;-92
2022/12/11 13:04:01;;;;;;;7.80;5.80;;;;;;;;;;5049569;28;20057;-93
2022/12/11 13:06:40;;;;;;;7.90;5.82;;;;;;;;;;5048672;28;20469;-92
2022/12/11 13:09:13;;;;;;;10.23;6.28;;;;;;;;;;5048593;28;20045;-93
2022/12/11 13:11:40;;;;;;;7.25;5.95;;;;;;;;;;5049044;28;20054;-93
2022/12/11 13:14:14;;;;;;;9.27;6.30;;;;;;;;;;5049387;28;20037;-93
2022/12/11 13:16:42;;;;;;;10.25;6.00;;;;;;;;;;5049217;28;20057;-94
2022/12/11 13:19:36;;;;;;;8.30;5.47;;;;;;;;;;5048489;28;20571;-94
2022/12/11 13:22:14;;;;;;;7.78;5.63;;;;;;;;;;5032715;28;20516;-93
2022/12/11 13:25:00;;;;;;;11.95;6.70;;;;;;;;;;5048605;28;20054;-93
2022/12/11 13:27:39;;;;;;;9.43;6.40;;;;;;;;;;5049357;28;20050;-93
2022/12/11 13:30:07;;;;;;;8.02;6.18;;;;;;;;;;5049436;28;20056;-93
2022/12/11 13:32:35;;;;;;;8.73;6.35;;;;;;;;;;5049471;28;20050;-93
2022/12/11 13:35:04;;;;;;;10.45;6.35;;;;;;;;;;5048735;28;20045;-93
2022/12/11 13:37:40;;;;;;;10.70;7.05;;;;;;;;;;5049065;28;20076;-93
2022/12/11 13:40:28;;;;;;;9.30;6.43;;;;;;;;;;5049622;28;20137;-93
2022/12/11 13:42:57;;;;;;;9.63;6.43;;;;;;;;;;5049586;28;20473;-93
2022/12/11 13:45:40;;;;;;;13.23;6.65;;;;;;;;;;5049599;28;20465;-92
2022/12/11 13:48:26;;;;;;;10.40;6.63;;;;;;;;;;5048971;28;20049;-93
2022/12/11 13:50:54;;;;;;;11.00;6.82;;;;;;;;;;5048885;28;20045;-93
2022/12/11 13:53:22;;;;;;;9.68;5.95;;;;;;;;;;5048893;28;20049;-93
2022/12/11 13:56:00;;;;;;;10.20;6.15;;;;;;;;;;5048974;28;20056;-90
2022/12/11 13:58:28;;;;;;;10.63;6.55;;;;;;;;;;5049040;28;20053;-93
2022/12/11 14:01:14;;;;;;;10.13;7.05;;;;;;;;;;5048900;28;20393;-93
2022/12/11 14:03:52;;;;;;;9.25;6.10;;;;;;;;;;5049154;28;20050;-94
2022/12/11 14:06:20;;;;;;;11.57;6.63;;;;;;;;;;5048748;28;20104;-93
2022/12/11 14:08:52;;;;;;;9.85;6.57;;;;;;;;;;5048623;28;20053;-94
2022/12/11 14:11:40;;;;;;;11.77;6.70;;;;;;;;;;5048781;28;20473;-93
2022/12/11 14:14:27;;;;;;;11.38;7.22;;;;;;;;;;5049002;28;20049;-93
2022/12/11 14:16:55;;;;;;;9.80;6.57;;;;;;;;;;5033095;28;20124;-93
2022/12/11 14:19:24;;;;;;;10.85;7.35;;;;;;;;;;5049252;28;20061;-93
2022/12/11 14:21:58;;;;;;;10.68;7.70;;;;;;;;;;5049812;28;20136;-93
2022/12/11 14:24:26;;;;;;;11.35;7.40;;;;;;;;;;5049160;28;20505;-93
2022/12/11 14:26:54;;;;;;;13.70;9.40;;;;;;;;;;5049585;28;20061;-93
2022/12/11 14:29:29;;;;;;;13.70;7.40;;;;;;;;;;5049290;28;20120;-93
2022/12/11 14:31:58;;;;;;;15.65;8.00;;;;;;;;;;5051989;28;20054;-94
2022/12/11 14:34:28;;;;;;;11.05;7.50;;;;;;;;;;5052961;28;20053;-93
2022/12/11 14:36:56;;;;;;;11.07;7.05;;;;;;;;;;5052208;28;20053;-94
2022/12/11 14:39:27;;;;;;;10.90;7.10;;;;;;;;;;5051750;28;20057;-93
2022/12/11 14:41:57;;;;;;;14.50;8.50;;;;;;;;;;5051405;28;20052;-93
2022/12/11 14:44:25;;;;;;;12.45;7.47;;;;;;;;;;5051405;28;20304;-93
2022/12/11 14:46:55;;;;;;;12.10;8.10;;;;;;;;;;5051296;28;20049;-93
2022/12/11 14:49:28;;;;;;;11.77;7.70;;;;;;;;;;5051774;28;20061;-94
2022/12/11 14:51:57;;;;;;;12.18;8.13;;;;;;;;;;5051652;28;20068;-93
2022/12/11 14:54:37;;;;;;;14.85;8.40;;;;;;;;;;5051677;28;20136;-93